Terminal Aerodrome Forecast
Issued by NWS

Home | Current Version | Previous Version | Text Only | Print | Product List | Glossary On
Versions: 1 2 3 4 5 6 7 8 9 10 11 12 13 14
336
FTUS44 KEPZ 231133
TAFDMN
TAF
KDMN 231133Z 2312/2412 32010KT P6SM SKC
     FM231800 35010KT P6SM SKC
     FM232100 30012G24KT P6SM SCT250
     FM240300 30008KT P6SM SCT250=

USA.gov is the U.S. government's official web portal to all federal, state and local government web resources and services.